• Join FlightAware (Why Join?)
  • Login
  • US Flag 
12:50AM EDT


 

Airport Tracker/Info


-or-


 

Live Flight TrackerFlight Track Log ✈ EJA941 ✈ 09-Jan-2014 ✈ KIAD - KDAL

Flight Track Log - Related Links

Times and Time Zones

All times are in EST time to prevent confusion due to time zone crossing. See the EJA941 flight status page for this flight to view local times or setup timezone preferences in your user account.

Time Position Orientation Groundspeed Altitude Reporting Facility
EST Latitude Longitude Course Direction KTS MPH feet Rate Location/Type
06:53AM 38.9333 -77.5333 256° West 211 243 2,900  Level Potomac TRACON
06:54AM 38.9167 -77.6167 256° West 241 277 6,300 2,460 Climbing Potomac TRACON
06:55AM 38.9000 -77.7000 256° West 241 277 7,900 2,160 Climbing Potomac TRACON
06:56AM 38.8681 -77.8072 249° West 245 282 11,500 1,980 Climbing Washington Center
06:57AM 38.8619 -77.9003 265° West 268 308 12,700 1,440 Climbing Washington Center
06:58AM 38.8597 -78.0175 269° West 300 345 14,400 1,800 Climbing Washington Center
06:59AM 38.8553 -78.1375 267° West 325 374 16,300 1,680 Climbing Washington Center
07:00AM 38.8525 -78.2681 268° West 335 386 17,900 1,740 Climbing Washington Center
07:01AM 38.8517 -78.3933 270° West 348 400 19,900 1,980 Climbing Washington Center
07:02AM 38.8319 -78.5178 259° West 353 406 21,900 1,920 Climbing Washington Center
07:03AM 38.8100 -78.6475 258° West 359 413 23,900 1,980 Climbing Washington Center
07:04AM 38.7881 -78.7744 258° West 369 425 25,900 1,980 Climbing Washington Center
07:05AM 38.7656 -78.9064 258° West 375 432 27,900 1,980 Climbing Washington Center
07:06AM 38.7431 -79.0358 257° West 375 432 29,900 2,040 Climbing Washington Center
07:07AM 38.7225 -79.1681 259° West 380 437 31,900 2,100 Climbing Washington Center
07:08AM 38.7019 -79.3028 259° West 380 437 34,100 2,100 Climbing Washington Center
07:09AM 38.6836 -79.4161 258° West 380 437 36,200 1,980 Climbing Washington Center
07:10AM 38.6631 -79.5400 258° West 369 425 38,200 1,560 Climbing Washington Center
07:11AM 38.6444 -79.6586 259° West 356 410 39,400 1,020 Climbing Washington Center
07:12AM 38.6214 -79.7822 257° West 356 410 40,300 1,020 Climbing Washington Center
07:13AM 38.5981 -79.9139 257° West 356 410 41,500 900 Climbing Washington Center
07:14AM 38.5747 -80.0347 256° West 356 410 42,100 480 Climbing Washington Center
07:16AM 38.5344 -80.2444 256° West 359 413 42,900 300 Climbing Indianapolis Center
07:17AM 38.5114 -80.3658 256° West 363 418 43,000  Climbing Indianapolis Center
07:18AM 38.4875 -80.4936 257° West 372 428 43,000  Level Indianapolis Center
07:19AM 38.4625 -80.6247 256° West 379 436 43,000  Level Indianapolis Center
07:20AM 38.4378 -80.7575 257° West 382 440 43,000  Level Indianapolis Center
07:21AM 38.4119 -80.8886 256° West 382 440 43,000  Level Indianapolis Center
07:22AM 38.3872 -81.0203 257° West 380 437 43,000  Level Indianapolis Center
07:23AM 38.3603 -81.1508 255° West 379 436 43,000  Level Indianapolis Center
07:24AM 38.3283 -81.2811 253° West 382 440 43,000  Level Indianapolis Center
07:25AM 38.2967 -81.4111 253° West 382 440 43,000  Level Indianapolis Center
07:26AM 38.2642 -81.5411 252° West 383 441 43,000  Level Indianapolis Center
07:27AM 38.2319 -81.6739 253° West 389 448 43,000  Level Indianapolis Center
07:28AM 38.1972 -81.8031 251° West 387 445 43,000  Level Indianapolis Center
07:29AM 38.1611 -81.9314 250° West 385 443 43,000  Level Indianapolis Center
07:30AM 38.1250 -82.0592 250° West 384 442 43,000  Level Indianapolis Center
07:31AM 38.0825 -82.2081 250° West 387 445 43,000  Level Indianapolis Center
07:32AM 38.0464 -82.3358 250° West 386 444 43,000  Level Indianapolis Center
07:33AM 38.0094 -82.4656 250° West 390 449 43,000  Level Indianapolis Center
07:34AM 37.9725 -82.5953 250° West 391 450 43,000  Level Indianapolis Center
07:35AM 37.9344 -82.7236 249° West 390 449 43,000  Level Indianapolis Center
07:36AM 37.8967 -82.8525 250° West 391 450 43,000  Level Indianapolis Center
07:37AM 37.8586 -82.9817 250° West 392 451 43,000  Level Indianapolis Center
07:38AM 37.8125 -83.1319 249° West 394 453 43,000  Level Indianapolis Center
07:39AM 37.7742 -83.2617 250° West 394 453 43,000  Level Indianapolis Center
07:40AM 37.7364 -83.3906 250° West 393 452 43,000  Level Indianapolis Center
07:41AM 37.6969 -83.5203 249° West 396 456 43,000  Level Indianapolis Center
07:42AM 37.6586 -83.6497 250° West 396 456 43,000  Level Indianapolis Center
07:43AM 37.6197 -83.7781 249° West 394 453 43,000  Level Indianapolis Center
07:44AM 37.5808 -83.9061 249° West 394 453 43,000  Level Indianapolis Center
07:45AM 37.5411 -84.0342 249° West 392 451 43,000  Level Indianapolis Center
07:46AM 37.5017 -84.1636 249° West 394 453 43,000  Level Indianapolis Center
07:47AM 37.4556 -84.3144 249° West 396 456 43,000  Level Indianapolis Center
07:48AM 37.4161 -84.4425 249° West 394 453 43,000  Level Indianapolis Center
07:49AM 37.3744 -84.5714 248° West 397 457 43,000  Level Indianapolis Center
07:50AM 37.3350 -84.6989 249° West 391 450 43,000  Level Indianapolis Center
07:52AM 37.2953 -84.8275 249° West 395 455 43,000  Level Indianapolis Center
07:53AM 37.2533 -84.9544 247° West 394 453 43,000  Level Indianapolis Center
07:54AM 37.2133 -85.0814 248° West 392 451 43,000  Level Indianapolis Center
07:55AM 37.1742 -85.2081 249° West 392 451 43,000  Level Indianapolis Center
07:56AM 37.1267 -85.3553 248° West 390 449 43,000  Level Indianapolis Center
07:57AM 37.0867 -85.4819 248° West 391 450 43,000  Level Indianapolis Center
07:58AM 37.0497 -85.5972 248° West 392 451 43,000  Level Indianapolis Center
07:59AM 37.0089 -85.7247 248° West 393 452 43,000  Level Indianapolis Center
08:00AM 36.9667 -85.8519 247° West 392 451 43,000  Level Indianapolis Center
08:01AM 36.9181 -86.0017 248° West 396 456 43,000  Level Indianapolis Center
08:02AM 36.8756 -86.1292 247° West 396 456 43,000  Level Indianapolis Center
08:03AM 36.8411 -86.2381 248° West 397 457 43,000  Level Memphis Center
08:04AM 36.7986 -86.3650 247° West 395 455 43,000  Level Memphis Center
08:05AM 36.7561 -86.4942 248° West 398 458 43,000  Level Memphis Center
08:06AM 36.7131 -86.6211 247° West 396 456 43,000  Level Memphis Center
08:07AM 36.6708 -86.7492 248° West 399 459 43,000  Level Memphis Center
08:08AM 36.6278 -86.8764 247° West 398 458 43,000  Level Memphis Center
08:09AM 36.5781 -87.0244 247° West 398 458 43,000  Level Memphis Center
08:10AM 36.5344 -87.1511 247° West 399 459 43,000  Level Memphis Center
08:11AM 36.4906 -87.2811 247° West 403 464 43,000  Level Memphis Center
08:12AM 36.4467 -87.4108 247° West 406 467 43,000  Level Memphis Center
08:13AM 36.4017 -87.5408 247° West 406 467 43,000  Level Memphis Center
08:14AM 36.3572 -87.6719 247° West 409 471 43,000  Level Memphis Center
08:15AM 36.3117 -87.8028 247° West 411 473 43,000  Level Memphis Center
08:16AM 36.2650 -87.9342 246° West 412 474 43,000  Level Memphis Center
08:17AM 36.2200 -88.0647 247° West 411 473 43,000  Level Memphis Center
08:18AM 36.1744 -88.1947 247° West 410 472 43,000  Level Memphis Center
08:19AM 36.1286 -88.3250 246° West 410 472 43,000  Level Memphis Center
08:20AM 36.0831 -88.4525 246° West 407 468 43,000  Level Memphis Center
08:21AM 36.0369 -88.5822 246° West 410 472 43,000  Level Memphis Center
08:22AM 35.9903 -88.7117 246° West 410 472 43,000  Level Memphis Center
08:23AM 35.9425 -88.8431 246° West 415 478 43,000  Level Memphis Center
08:24AM 35.8967 -88.9731 247° West 414 476 43,000  Level Memphis Center
08:25AM 35.8489 -89.1031 246° West 414 476 43,000  Level Memphis Center
08:26AM 35.7919 -89.2600 246° West 415 478 43,000  Level Memphis Center
08:27AM 35.7444 -89.3919 246° West 417 480 43,000  Level Memphis Center
08:28AM 35.6964 -89.5225 246° West 417 480 43,000  Level Memphis Center
08:29AM 35.6542 -89.6375 246° West 419 482 43,000  Level Memphis Center
08:30AM 35.5972 -89.7903 245° Southwest 419 482 43,000  Level Memphis Center
08:31AM 35.5486 -89.9211 245° Southwest 419 482 43,000  Level Memphis Center
08:32AM 35.4997 -90.0522 245° Southwest 420 483 43,000  Level Memphis Center
08:33AM 35.4514 -90.1811 245° Southwest 417 480 43,000  Level Memphis Center
08:34AM 35.4019 -90.3131 245° Southwest 421 484 43,000  Level Memphis Center
08:35AM 35.3528 -90.4428 245° Southwest 418 481 43,000  Level Memphis Center
08:36AM 35.3042 -90.5725 245° Southwest 418 481 43,000  Level Memphis Center
08:37AM 35.2550 -90.7031 245° Southwest 418 481 43,000  Level Memphis Center
08:38AM 35.2047 -90.8328 245° Southwest 420 483 43,000  Level Memphis Center
08:39AM 35.1458 -90.9842 245° Southwest 420 483 43,000  Level Memphis Center
08:40AM 35.0953 -91.1153 245° Southwest 422 486 43,000  Level Memphis Center
08:41AM 35.0469 -91.2450 246° West 419 482 43,000  Level Memphis Center
08:42AM 34.9961 -91.3756 245° Southwest 421 484 43,000  Level Memphis Center
08:43AM 34.9442 -91.5067 244° Southwest 422 486 43,000  Level Memphis Center
08:45AM 34.8953 -91.6347 245° Southwest 420 483 43,000  Level Memphis Center
08:46AM 34.8450 -91.7622 244° Southwest 418 481 43,000  Level Memphis Center
08:47AM 34.7933 -91.8903 244° Southwest 420 483 43,000  Level Memphis Center
08:48AM 34.7442 -92.0169 245° Southwest 417 480 43,000  Level Memphis Center
08:49AM 34.6928 -92.1433 244° Southwest 416 479 43,000  Level Memphis Center
08:50AM 34.6542 -92.2731 250° West 411 473 43,000  Level Memphis Center
08:51AM 34.6122 -92.4308 252° West 410 472 43,000  Level Memphis Center
08:52AM 34.5781 -92.5622 253° West 409 471 43,000  Level Memphis Center
08:53AM 34.5442 -92.6925 253° West 406 467 43,000  Level Memphis Center
08:54AM 34.5089 -92.8219 252° West 405 466 43,000  Level Memphis Center
08:55AM 34.4736 -92.9522 252° West 406 467 43,000  Level Memphis Center
08:56AM 34.4383 -93.0828 252° West 406 467 43,000  Level Memphis Center
08:57AM 34.4033 -93.2125 252° West 405 466 43,000  Level Memphis Center
08:58AM 34.3683 -93.3414 252° West 405 466 43,000  Level Memphis Center
08:59AM 34.3436 -93.4333 252° West 407 468 43,000  Level Fort Worth Center
09:00AM 34.3083 -93.5639 252° West 409 471 43,000 -60 Level Fort Worth Center
09:01AM 34.2700 -93.6933 250° West 412 474 42,900  Descending Fort Worth Center
09:02AM 34.2131 -93.8458 246° West 416 479 43,000  Climbing Fort Worth Center
09:03AM 34.1672 -93.9722 246° West 415 478 43,000  Level Fort Worth Center
09:04AM 34.1192 -94.0964 245° Southwest 414 476 43,000  Level Fort Worth Center
09:05AM 34.0536 -94.2111 235° Southwest 415 478 43,000  Level Fort Worth Center
09:06AM 33.9914 -94.3286 237° Southwest 418 481 43,000 -780 Level Fort Worth Center
09:07AM 33.9483 -94.4550 248° West 413 475 41,500 -1,860 Descending Fort Worth Center
09:08AM 33.9019 -94.5833 246° West 420 483 39,300 -2,400 Descending Fort Worth Center
09:09AM 33.8486 -94.7367 247° West 418 481 36,700 -2,400 Descending Fort Worth Center
09:10AM 33.8039 -94.8625 247° West 411 473 34,500 -2,160 Descending Fort Worth Center
09:11AM 33.7575 -94.9911 247° West 421 484 32,300 -2,220 Descending Fort Worth Center
09:12AM 33.7103 -95.1192 246° West 422 486 30,100 -2,220 Descending Fort Worth Center
09:13AM 33.6631 -95.2497 247° West 427 491 27,800 -2,280 Descending Fort Worth Center
09:14AM 33.6158 -95.3806 247° West 429 494 25,500 -2,220 Descending Fort Worth Center
09:15AM 33.5683 -95.5078 246° West 422 486 23,300 -2,340 Descending Fort Worth Center
09:16AM 33.5153 -95.6550 247° West 411 473 20,800 -2,400 Descending Fort Worth Center
09:17AM 33.4683 -95.7839 246° West 396 456 18,500 -2,160 Descending Fort Worth Center
09:18AM 33.4231 -95.9019 245° Southwest 394 453 16,400 -2,100 Descending Fort Worth Center
09:19AM 33.3811 -96.0178 247° West 382 440 14,300 -2,820 Descending Fort Worth Center
09:20AM 33.3383 -96.1306 246° West 344 396 10,700 -2,340 Descending Fort Worth Center
09:21AM 33.3056 -96.2194 246° West 289 333 9,600 -840 Descending Fort Worth Center
09:22AM 33.2764 -96.2964 246° West 258 297 9,000 -540 Descending Fort Worth Center
09:23AM 33.2347 -96.3769 238° Southwest 267 307 8,600 -900 Descending Fort Worth Center
09:24AM 33.2000 -96.4333 234° Southwest 260 299 7,300 -1,560 Descending Dallas / Fort Worth TRACON
09:25AM 33.1667 -96.5167 244° Southwest 258 297 5,700 -1,200 Descending Dallas / Fort Worth TRACON
09:26AM 33.1333 -96.5833 239° Southwest 250 288 5,000 -360 Descending Dallas / Fort Worth TRACON
09:27AM 33.1000 -96.6500 239° Southwest 174 200 5,000  Level Dallas / Fort Worth TRACON
09:28AM 33.0667 -96.6833 220° Southwest 163 188 5,000  Level Dallas / Fort Worth TRACON
09:29AM 33.0500 -96.7333 248° West 165 190 5,000 -240 Level Dallas / Fort Worth TRACON
09:30AM 33.0333 -96.7833 248° West 169 194 4,600 -540 Descending Dallas / Fort Worth TRACON
09:31AM 33.0167 -96.8333 248° West 164 189 4,000 -660 Descending Dallas / Fort Worth TRACON
09:32AM 33.0000 -96.8833 248° West 148 170 3,300 -540 Descending Dallas / Fort Worth TRACON
09:33AM 32.9833 -96.9167 239° Southwest 139 160 3,000 -420 Descending Dallas / Fort Worth TRACON
09:34AM 32.9500 -96.9500 220° Southwest 151 174 2,500 -540 Descending Dallas / Fort Worth TRACON
09:35AM 32.9167 -96.9333 157° South 152 175 2,000 -600 Descending Dallas / Fort Worth TRACON
09:36AM 32.8833 -96.9000 140° Southeast 124 143 1,400 -600 Descending Dallas / Fort Worth TRACON